sensor_id;sensor_type;location;lat;lon;timestamp;temperature;humidity
17918;DHT22;9084;50.956;3.106;2022-07-25T00:01:10;21.70;1.00
17918;DHT22;9084;50.956;3.106;2022-07-25T00:03:36;21.70;1.00
17918;DHT22;9084;50.956;3.106;2022-07-25T00:06:01;21.70;1.00
17918;DHT22;9084;50.956;3.106;2022-07-25T00:08:29;21.70;1.00
17918;DHT22;9084;50.956;3.106;2022-07-25T00:10:55;21.70;1.00
17918;DHT22;9084;50.956;3.106;2022-07-25T00:13:20;21.70;1.00
17918;DHT22;9084;50.956;3.106;2022-07-25T00:15:46;21.70;1.00
17918;DHT22;9084;50.956;3.106;2022-07-25T00:18:12;21.70;1.00
17918;DHT22;9084;50.956;3.106;2022-07-25T00:20:38;21.70;1.00
17918;DHT22;9084;50.956;3.106;2022-07-25T00:23:03;21.70;1.00
17918;DHT22;9084;50.956;3.106;2022-07-25T00:25:29;21.80;1.00
17918;DHT22;9084;50.956;3.106;2022-07-25T00:27:54;21.80;1.00
17918;DHT22;9084;50.956;3.106;2022-07-25T00:30:20;21.80;1.00
17918;DHT22;9084;50.956;3.106;2022-07-25T00:32:46;21.80;1.00
17918;DHT22;9084;50.956;3.106;2022-07-25T00:35:12;21.80;1.00
17918;DHT22;9084;50.956;3.106;2022-07-25T00:37:38;21.70;1.00
17918;DHT22;9084;50.956;3.106;2022-07-25T00:40:06;21.60;1.00
17918;DHT22;9084;50.956;3.106;2022-07-25T00:42:34;21.60;1.00
17918;DHT22;9084;50.956;3.106;2022-07-25T00:45:03;21.60;1.00
17918;DHT22;9084;50.956;3.106;2022-07-25T00:47:29;21.50;1.00
17918;DHT22;9084;50.956;3.106;2022-07-25T00:49:57;21.50;1.00
17918;DHT22;9084;50.956;3.106;2022-07-25T00:52:25;21.40;1.00
17918;DHT22;9084;50.956;3.106;2022-07-25T00:54:54;21.40;1.00
17918;DHT22;9084;50.956;3.106;2022-07-25T00:57:21;21.40;1.00
17918;DHT22;9084;50.956;3.106;2022-07-25T00:59:47;21.40;1.00
17918;DHT22;9084;50.956;3.106;2022-07-25T01:02:15;21.40;1.00
17918;DHT22;9084;50.956;3.106;2022-07-25T01:04:41;21.40;1.00
17918;DHT22;9084;50.956;3.106;2022-07-25T01:07:08;21.40;1.00
17918;DHT22;9084;50.956;3.106;2022-07-25T01:09:37;21.40;1.00
17918;DHT22;9084;50.956;3.106;2022-07-25T01:12:05;21.40;1.00
17918;DHT22;9084;50.956;3.106;2022-07-25T01:14:31;21.40;1.00
17918;DHT22;9084;50.956;3.106;2022-07-25T01:17:02;21.40;1.00
17918;DHT22;9084;50.956;3.106;2022-07-25T01:19:27;21.40;1.00
17918;DHT22;9084;50.956;3.106;2022-07-25T01:21:56;21.40;1.00
17918;DHT22;9084;50.956;3.106;2022-07-25T01:24:21;21.40;1.00
17918;DHT22;9084;50.956;3.106;2022-07-25T01:26:47;21.40;1.00
17918;DHT22;9084;50.956;3.106;2022-07-25T01:29:13;21.40;1.00
17918;DHT22;9084;50.956;3.106;2022-07-25T01:31:39;21.40;1.00
17918;DHT22;9084;50.956;3.106;2022-07-25T01:34:04;21.40;1.00
17918;DHT22;9084;50.956;3.106;2022-07-25T01:36:30;21.40;1.00
17918;DHT22;9084;50.956;3.106;2022-07-25T01:38:58;21.40;1.00
17918;DHT22;9084;50.956;3.106;2022-07-25T01:41:26;21.40;1.00
17918;DHT22;9084;50.956;3.106;2022-07-25T01:43:52;21.40;1.00
17918;DHT22;9084;50.956;3.106;2022-07-25T01:46:18;21.40;1.00
17918;DHT22;9084;50.956;3.106;2022-07-25T01:48:43;21.40;1.00
17918;DHT22;9084;50.956;3.106;2022-07-25T01:51:09;21.30;1.00
17918;DHT22;9084;50.956;3.106;2022-07-25T01:53:35;21.30;1.00
17918;DHT22;9084;50.956;3.106;2022-07-25T01:56:05;21.30;1.00
17918;DHT22;9084;50.956;3.106;2022-07-25T01:58:36;21.30;1.00
17918;DHT22;9084;50.956;3.106;2022-07-25T02:01:01;21.30;1.00
17918;DHT22;9084;50.956;3.106;2022-07-25T02:03:28;21.30;1.00
17918;DHT22;9084;50.956;3.106;2022-07-25T02:06:01;21.30;1.00
17918;DHT22;9084;50.956;3.106;2022-07-25T02:08:30;21.30;1.00
17918;DHT22;9084;50.956;3.106;2022-07-25T02:10:57;21.40;1.00
17918;DHT22;9084;50.956;3.106;2022-07-25T02:13:23;21.30;1.00
17918;DHT22;9084;50.956;3.106;2022-07-25T02:15:49;21.30;1.00
17918;DHT22;9084;50.956;3.106;2022-07-25T02:18:15;21.30;1.00
17918;DHT22;9084;50.956;3.106;2022-07-25T02:20:42;21.30;1.00
17918;DHT22;9084;50.956;3.106;2022-07-25T02:23:08;21.30;1.00
17918;DHT22;9084;50.956;3.106;2022-07-25T02:25:35;21.30;1.00
17918;DHT22;9084;50.956;3.106;2022-07-25T02:28:01;21.30;1.00
17918;DHT22;9084;50.956;3.106;2022-07-25T02:30:32;21.20;1.00
17918;DHT22;9084;50.956;3.106;2022-07-25T02:33:00;21.20;1.00
17918;DHT22;9084;50.956;3.106;2022-07-25T02:35:26;21.20;1.00
17918;DHT22;9084;50.956;3.106;2022-07-25T02:37:56;21.20;1.00
17918;DHT22;9084;50.956;3.106;2022-07-25T02:40:24;21.10;1.00
17918;DHT22;9084;50.956;3.106;2022-07-25T02:42:50;21.10;1.00
17918;DHT22;9084;50.956;3.106;2022-07-25T02:45:16;21.10;1.00
17918;DHT22;9084;50.956;3.106;2022-07-25T02:47:42;21.10;1.00
17918;DHT22;9084;50.956;3.106;2022-07-25T02:50:10;21.00;1.00
17918;DHT22;9084;50.956;3.106;2022-07-25T02:52:35;21.00;1.00
17918;DHT22;9084;50.956;3.106;2022-07-25T02:55:06;21.00;1.00
17918;DHT22;9084;50.956;3.106;2022-07-25T02:57:32;20.90;1.00
17918;DHT22;9084;50.956;3.106;2022-07-25T03:00:00;20.80;1.00
17918;DHT22;9084;50.956;3.106;2022-07-25T03:02:26;20.80;1.00
17918;DHT22;9084;50.956;3.106;2022-07-25T03:04:52;20.80;1.00
17918;DHT22;9084;50.956;3.106;2022-07-25T03:07:18;20.70;1.00
17918;DHT22;9084;50.956;3.106;2022-07-25T03:09:45;20.70;1.00
17918;DHT22;9084;50.956;3.106;2022-07-25T03:12:11;20.70;1.00
17918;DHT22;9084;50.956;3.106;2022-07-25T03:14:40;20.60;1.00
17918;DHT22;9084;50.956;3.106;2022-07-25T03:17:08;20.60;1.00
17918;DHT22;9084;50.956;3.106;2022-07-25T03:19:33;20.60;1.00
17918;DHT22;9084;50.956;3.106;2022-07-25T03:21:59;20.50;1.00
17918;DHT22;9084;50.956;3.106;2022-07-25T03:24:25;20.50;1.00
17918;DHT22;9084;50.956;3.106;2022-07-25T03:26:53;20.50;1.00
17918;DHT22;9084;50.956;3.106;2022-07-25T03:29:19;20.50;1.00
17918;DHT22;9084;50.956;3.106;2022-07-25T03:31:47;20.50;1.00
17918;DHT22;9084;50.956;3.106;2022-07-25T03:34:13;20.50;1.00
17918;DHT22;9084;50.956;3.106;2022-07-25T03:36:38;20.40;1.00
17918;DHT22;9084;50.956;3.106;2022-07-25T03:39:07;20.40;1.00
17918;DHT22;9084;50.956;3.106;2022-07-25T03:41:33;20.40;1.00
17918;DHT22;9084;50.956;3.106;2022-07-25T03:43:59;20.40;1.00
17918;DHT22;9084;50.956;3.106;2022-07-25T03:46:25;20.40;1.00
17918;DHT22;9084;50.956;3.106;2022-07-25T03:48:51;20.40;1.00
17918;DHT22;9084;50.956;3.106;2022-07-25T03:51:20;20.30;1.00
17918;DHT22;9084;50.956;3.106;2022-07-25T03:53:47;20.30;1.00
17918;DHT22;9084;50.956;3.106;2022-07-25T03:56:36;20.30;1.00
17918;DHT22;9084;50.956;3.106;2022-07-25T03:59:03;20.20;1.00
17918;DHT22;9084;50.956;3.106;2022-07-25T04:01:31;20.20;1.00
17918;DHT22;9084;50.956;3.106;2022-07-25T04:03:58;20.30;1.00
17918;DHT22;9084;50.956;3.106;2022-07-25T04:06:24;20.30;1.00
17918;DHT22;9084;50.956;3.106;2022-07-25T04:08:50;20.30;1.00
17918;DHT22;9084;50.956;3.106;2022-07-25T04:11:19;20.30;1.00
17918;DHT22;9084;50.956;3.106;2022-07-25T04:13:48;20.30;1.00
17918;DHT22;9084;50.956;3.106;2022-07-25T04:16:16;20.30;1.00
17918;DHT22;9084;50.956;3.106;2022-07-25T04:18:45;20.30;1.00
17918;DHT22;9084;50.956;3.106;2022-07-25T04:21:11;20.30;1.00
17918;DHT22;9084;50.956;3.106;2022-07-25T04:23:36;20.30;1.00
17918;DHT22;9084;50.956;3.106;2022-07-25T04:26:05;20.30;1.00
17918;DHT22;9084;50.956;3.106;2022-07-25T04:28:31;20.30;1.00
17918;DHT22;9084;50.956;3.106;2022-07-25T04:31:00;20.30;1.00
17918;DHT22;9084;50.956;3.106;2022-07-25T04:33:28;20.30;1.00
17918;DHT22;9084;50.956;3.106;2022-07-25T04:35:54;20.30;1.00
17918;DHT22;9084;50.956;3.106;2022-07-25T04:38:22;20.30;1.00
17918;DHT22;9084;50.956;3.106;2022-07-25T04:40:48;20.30;1.00
17918;DHT22;9084;50.956;3.106;2022-07-25T04:43:16;20.30;1.00
17918;DHT22;9084;50.956;3.106;2022-07-25T04:45:42;20.40;1.00
17918;DHT22;9084;50.956;3.106;2022-07-25T04:48:10;20.40;1.00
17918;DHT22;9084;50.956;3.106;2022-07-25T04:50:40;20.40;1.00
17918;DHT22;9084;50.956;3.106;2022-07-25T04:53:06;20.40;1.00
17918;DHT22;9084;50.956;3.106;2022-07-25T04:55:34;20.50;1.00
17918;DHT22;9084;50.956;3.106;2022-07-25T04:58:03;20.50;1.00
17918;DHT22;9084;50.956;3.106;2022-07-25T05:00:29;20.50;1.00
17918;DHT22;9084;50.956;3.106;2022-07-25T05:02:56;20.50;1.00
17918;DHT22;9084;50.956;3.106;2022-07-25T05:05:21;20.50;1.00
17918;DHT22;9084;50.956;3.106;2022-07-25T05:07:55;20.50;1.00
17918;DHT22;9084;50.956;3.106;2022-07-25T05:10:21;20.50;1.00
17918;DHT22;9084;50.956;3.106;2022-07-25T05:12:47;20.60;1.00
17918;DHT22;9084;50.956;3.106;2022-07-25T05:15:15;20.70;1.00
17918;DHT22;9084;50.956;3.106;2022-07-25T05:17:41;20.70;1.00
17918;DHT22;9084;50.956;3.106;2022-07-25T05:20:07;20.70;1.00
17918;DHT22;9084;50.956;3.106;2022-07-25T05:22:33;20.70;1.00
17918;DHT22;9084;50.956;3.106;2022-07-25T05:24:59;20.80;1.00
17918;DHT22;9084;50.956;3.106;2022-07-25T05:27:27;20.80;1.00
17918;DHT22;9084;50.956;3.106;2022-07-25T05:29:52;20.90;1.00
17918;DHT22;9084;50.956;3.106;2022-07-25T05:32:20;20.90;1.00
17918;DHT22;9084;50.956;3.106;2022-07-25T05:34:48;20.90;1.00
17918;DHT22;9084;50.956;3.106;2022-07-25T05:37:15;20.90;1.00
17918;DHT22;9084;50.956;3.106;2022-07-25T05:39:40;20.90;1.00
17918;DHT22;9084;50.956;3.106;2022-07-25T05:42:07;20.90;1.00
17918;DHT22;9084;50.956;3.106;2022-07-25T05:44:32;21.00;1.00
17918;DHT22;9084;50.956;3.106;2022-07-25T05:46:59;21.00;1.00
17918;DHT22;9084;50.956;3.106;2022-07-25T05:49:24;21.10;1.00
17918;DHT22;9084;50.956;3.106;2022-07-25T05:51:50;21.10;1.00
17918;DHT22;9084;50.956;3.106;2022-07-25T05:54:18;21.20;1.00
17918;DHT22;9084;50.956;3.106;2022-07-25T05:56:46;21.30;1.00
17918;DHT22;9084;50.956;3.106;2022-07-25T05:59:11;21.40;1.00
17918;DHT22;9084;50.956;3.106;2022-07-25T06:01:38;21.60;1.00
17918;DHT22;9084;50.956;3.106;2022-07-25T06:04:04;21.70;1.00
17918;DHT22;9084;50.956;3.106;2022-07-25T06:06:30;21.70;1.00
17918;DHT22;9084;50.956;3.106;2022-07-25T06:08:57;21.80;1.00
17918;DHT22;9084;50.956;3.106;2022-07-25T06:11:22;21.90;1.00
17918;DHT22;9084;50.956;3.106;2022-07-25T06:13:51;22.00;1.00
17918;DHT22;9084;50.956;3.106;2022-07-25T06:16:19;22.00;1.00
17918;DHT22;9084;50.956;3.106;2022-07-25T06:18:45;22.00;1.00
17918;DHT22;9084;50.956;3.106;2022-07-25T06:21:10;22.00;1.00
17918;DHT22;9084;50.956;3.106;2022-07-25T06:23:38;21.90;1.00
17918;DHT22;9084;50.956;3.106;2022-07-25T06:26:07;21.90;1.00
17918;DHT22;9084;50.956;3.106;2022-07-25T06:28:35;21.80;1.00
17918;DHT22;9084;50.956;3.106;2022-07-25T06:31:03;21.70;1.00
17918;DHT22;9084;50.956;3.106;2022-07-25T06:33:29;21.70;1.00
17918;DHT22;9084;50.956;3.106;2022-07-25T06:35:55;21.60;1.00
17918;DHT22;9084;50.956;3.106;2022-07-25T06:38:20;21.50;1.00
17918;DHT22;9084;50.956;3.106;2022-07-25T06:40:46;21.50;1.00
17918;DHT22;9084;50.956;3.106;2022-07-25T06:43:12;21.50;1.00
17918;DHT22;9084;50.956;3.106;2022-07-25T06:45:38;21.60;1.00
17918;DHT22;9084;50.956;3.106;2022-07-25T06:48:11;21.60;1.00
17918;DHT22;9084;50.956;3.106;2022-07-25T06:50:39;21.60;1.00
17918;DHT22;9084;50.956;3.106;2022-07-25T06:53:04;21.70;1.00
17918;DHT22;9084;50.956;3.106;2022-07-25T06:55:30;21.80;1.00
17918;DHT22;9084;50.956;3.106;2022-07-25T06:57:58;21.90;1.00
17918;DHT22;9084;50.956;3.106;2022-07-25T07:00:27;22.00;1.00
17918;DHT22;9084;50.956;3.106;2022-07-25T07:02:57;22.00;1.00
17918;DHT22;9084;50.956;3.106;2022-07-25T07:05:30;22.10;1.00
17918;DHT22;9084;50.956;3.106;2022-07-25T07:07:57;22.30;1.00
17918;DHT22;9084;50.956;3.106;2022-07-25T07:10:23;22.40;1.00
17918;DHT22;9084;50.956;3.106;2022-07-25T07:12:49;22.50;1.00
17918;DHT22;9084;50.956;3.106;2022-07-25T07:15:15;22.70;1.00
17918;DHT22;9084;50.956;3.106;2022-07-25T07:17:43;22.90;1.00
17918;DHT22;9084;50.956;3.106;2022-07-25T07:20:11;23.10;1.00
17918;DHT22;9084;50.956;3.106;2022-07-25T07:22:44;23.30;1.00
17918;DHT22;9084;50.956;3.106;2022-07-25T07:25:15;23.40;1.00
17918;DHT22;9084;50.956;3.106;2022-07-25T07:27:42;23.50;1.00
17918;DHT22;9084;50.956;3.106;2022-07-25T07:30:08;23.50;1.00
17918;DHT22;9084;50.956;3.106;2022-07-25T07:32:37;23.50;1.00
17918;DHT22;9084;50.956;3.106;2022-07-25T07:35:04;23.60;1.00
17918;DHT22;9084;50.956;3.106;2022-07-25T07:37:29;23.60;1.00
17918;DHT22;9084;50.956;3.106;2022-07-25T07:39:58;23.40;1.00
17918;DHT22;9084;50.956;3.106;2022-07-25T07:42:23;23.30;1.00
17918;DHT22;9084;50.956;3.106;2022-07-25T07:44:49;23.20;1.00
17918;DHT22;9084;50.956;3.106;2022-07-25T07:47:15;23.20;1.00
17918;DHT22;9084;50.956;3.106;2022-07-25T07:49:41;23.20;1.00
17918;DHT22;9084;50.956;3.106;2022-07-25T07:52:07;23.20;1.00
17918;DHT22;9084;50.956;3.106;2022-07-25T07:54:36;23.40;1.00
17918;DHT22;9084;50.956;3.106;2022-07-25T07:57:20;23.30;1.00
17918;DHT22;9084;50.956;3.106;2022-07-25T07:59:48;23.40;1.00
17918;DHT22;9084;50.956;3.106;2022-07-25T08:02:14;23.40;1.00
17918;DHT22;9084;50.956;3.106;2022-07-25T08:04:44;23.50;1.00
17918;DHT22;9084;50.956;3.106;2022-07-25T08:07:13;23.60;1.00
17918;DHT22;9084;50.956;3.106;2022-07-25T08:09:39;23.80;1.00
17918;DHT22;9084;50.956;3.106;2022-07-25T08:12:05;24.00;1.00
17918;DHT22;9084;50.956;3.106;2022-07-25T08:14:31;24.10;1.00
17918;DHT22;9084;50.956;3.106;2022-07-25T08:16:59;24.10;1.00
17918;DHT22;9084;50.956;3.106;2022-07-25T08:19:24;24.10;1.00
17918;DHT22;9084;50.956;3.106;2022-07-25T08:21:50;24.10;1.00
17918;DHT22;9084;50.956;3.106;2022-07-25T08:24:16;24.30;1.00
17918;DHT22;9084;50.956;3.106;2022-07-25T08:26:42;24.40;1.00
17918;DHT22;9084;50.956;3.106;2022-07-25T08:29:07;24.50;1.00
17918;DHT22;9084;50.956;3.106;2022-07-25T08:31:33;24.50;1.00
17918;DHT22;9084;50.956;3.106;2022-07-25T08:33:58;24.50;1.00
17918;DHT22;9084;50.956;3.106;2022-07-25T08:36:24;24.50;1.00
17918;DHT22;9084;50.956;3.106;2022-07-25T08:38:53;24.50;1.00
17918;DHT22;9084;50.956;3.106;2022-07-25T08:41:21;24.60;1.00
17918;DHT22;9084;50.956;3.106;2022-07-25T08:43:51;24.50;1.00
17918;DHT22;9084;50.956;3.106;2022-07-25T08:46:19;24.50;1.00
17918;DHT22;9084;50.956;3.106;2022-07-25T08:48:46;24.40;1.00
17918;DHT22;9084;50.956;3.106;2022-07-25T08:51:15;24.30;1.00
17918;DHT22;9084;50.956;3.106;2022-07-25T08:53:41;24.40;1.00
17918;DHT22;9084;50.956;3.106;2022-07-25T08:56:07;24.40;1.00
17918;DHT22;9084;50.956;3.106;2022-07-25T08:58:34;24.30;1.00
17918;DHT22;9084;50.956;3.106;2022-07-25T09:00:59;24.10;1.00
17918;DHT22;9084;50.956;3.106;2022-07-25T09:03:25;23.80;1.00
17918;DHT22;9084;50.956;3.106;2022-07-25T09:05:54;23.70;1.00
17918;DHT22;9084;50.956;3.106;2022-07-25T09:08:22;23.50;1.00
17918;DHT22;9084;50.956;3.106;2022-07-25T09:10:50;23.30;1.00
17918;DHT22;9084;50.956;3.106;2022-07-25T09:13:18;23.30;1.00
17918;DHT22;9084;50.956;3.106;2022-07-25T09:15:47;23.30;1.00
17918;DHT22;9084;50.956;3.106;2022-07-25T09:18:21;23.30;1.00
17918;DHT22;9084;50.956;3.106;2022-07-25T09:20:49;23.20;1.00
17918;DHT22;9084;50.956;3.106;2022-07-25T09:23:38;23.10;1.00
17918;DHT22;9084;50.956;3.106;2022-07-25T09:26:08;23.10;1.00
17918;DHT22;9084;50.956;3.106;2022-07-25T09:28:46;23.10;1.00
17918;DHT22;9084;50.956;3.106;2022-07-25T09:31:16;23.20;1.00
17918;DHT22;9084;50.956;3.106;2022-07-25T09:33:54;23.30;1.00
17918;DHT22;9084;50.956;3.106;2022-07-25T09:36:27;23.50;1.00
17918;DHT22;9084;50.956;3.106;2022-07-25T09:39:00;23.80;1.00
17918;DHT22;9084;50.956;3.106;2022-07-25T09:41:38;23.90;1.00
17918;DHT22;9084;50.956;3.106;2022-07-25T09:44:20;24.10;1.00
17918;DHT22;9084;50.956;3.106;2022-07-25T09:46:54;24.00;1.00
17918;DHT22;9084;50.956;3.106;2022-07-25T09:49:20;24.20;1.00
17918;DHT22;9084;50.956;3.106;2022-07-25T09:51:48;24.60;1.00
17918;DHT22;9084;50.956;3.106;2022-07-25T09:54:14;24.80;1.00
17918;DHT22;9084;50.956;3.106;2022-07-25T09:56:41;24.90;1.00
17918;DHT22;9084;50.956;3.106;2022-07-25T09:59:09;24.90;1.00
17918;DHT22;9084;50.956;3.106;2022-07-25T10:01:45;24.80;1.00
17918;DHT22;9084;50.956;3.106;2022-07-25T10:04:25;24.70;1.00
17918;DHT22;9084;50.956;3.106;2022-07-25T10:07:15;24.70;1.00
17918;DHT22;9084;50.956;3.106;2022-07-25T10:09:53;24.50;1.00
17918;DHT22;9084;50.956;3.106;2022-07-25T10:12:20;24.60;1.00
17918;DHT22;9084;50.956;3.106;2022-07-25T10:17:33;24.70;1.00
17918;DHT22;9084;50.956;3.106;2022-07-25T10:19:59;24.80;1.00
17918;DHT22;9084;50.956;3.106;2022-07-25T10:22:39;24.80;1.00
17918;DHT22;9084;50.956;3.106;2022-07-25T10:25:17;24.60;1.00
17918;DHT22;9084;50.956;3.106;2022-07-25T10:28:05;24.60;1.00
17918;DHT22;9084;50.956;3.106;2022-07-25T10:30:37;24.80;1.00
17918;DHT22;9084;50.956;3.106;2022-07-25T10:33:16;24.90;99.90
17918;DHT22;9084;50.956;3.106;2022-07-25T10:35:42;25.00;99.90
17918;DHT22;9084;50.956;3.106;2022-07-25T10:38:09;25.00;67.40
17918;DHT22;9084;50.956;3.106;2022-07-25T10:40:41;24.80;99.90
17918;DHT22;9084;50.956;3.106;2022-07-25T10:43:17;24.50;99.90
17918;DHT22;9084;50.956;3.106;2022-07-25T10:45:56;24.50;99.90
17918;DHT22;9084;50.956;3.106;2022-07-25T10:50:58;24.50;99.90
17918;DHT22;9084;50.956;3.106;2022-07-25T10:56:14;25.00;99.90
17918;DHT22;9084;50.956;3.106;2022-07-25T11:01:11;25.00;32.70
17918;DHT22;9084;50.956;3.106;2022-07-25T11:03:40;24.90;26.00
17918;DHT22;9084;50.956;3.106;2022-07-25T11:06:08;25.00;92.20
17918;DHT22;9084;50.956;3.106;2022-07-25T11:08:34;25.00;1.00
17918;DHT22;9084;50.956;3.106;2022-07-25T11:11:00;25.10;1.00
17918;DHT22;9084;50.956;3.106;2022-07-25T11:13:27;25.10;1.00
17918;DHT22;9084;50.956;3.106;2022-07-25T11:15:58;25.10;1.00
17918;DHT22;9084;50.956;3.106;2022-07-25T11:18:38;25.10;1.00
17918;DHT22;9084;50.956;3.106;2022-07-25T11:21:06;25.10;1.00
17918;DHT22;9084;50.956;3.106;2022-07-25T11:23:33;25.20;1.00
17918;DHT22;9084;50.956;3.106;2022-07-25T11:26:07;25.30;99.90
17918;DHT22;9084;50.956;3.106;2022-07-25T11:28:44;25.40;1.00
17918;DHT22;9084;50.956;3.106;2022-07-25T11:31:13;25.30;1.00
17918;DHT22;9084;50.956;3.106;2022-07-25T11:33:45;25.00;1.00
17918;DHT22;9084;50.956;3.106;2022-07-25T11:36:12;24.90;80.70
17918;DHT22;9084;50.956;3.106;2022-07-25T11:38:45;24.90;99.90
17918;DHT22;9084;50.956;3.106;2022-07-25T11:41:12;25.10;99.90
17918;DHT22;9084;50.956;3.106;2022-07-25T11:43:37;25.00;99.90
17918;DHT22;9084;50.956;3.106;2022-07-25T11:46:11;25.00;1.00
17918;DHT22;9084;50.956;3.106;2022-07-25T11:48:39;25.20;99.90
17918;DHT22;9084;50.956;3.106;2022-07-25T11:51:13;25.40;1.00
17918;DHT22;9084;50.956;3.106;2022-07-25T11:53:45;25.40;1.00
17918;DHT22;9084;50.956;3.106;2022-07-25T11:56:15;25.40;99.90
17918;DHT22;9084;50.956;3.106;2022-07-25T11:58:41;25.60;99.90
17918;DHT22;9084;50.956;3.106;2022-07-25T12:01:13;25.80;1.00
17918;DHT22;9084;50.956;3.106;2022-07-25T12:03:40;25.80;1.00
17918;DHT22;9084;50.956;3.106;2022-07-25T12:06:10;25.80;1.00
17918;DHT22;9084;50.956;3.106;2022-07-25T12:08:41;25.70;1.00
17918;DHT22;9084;50.956;3.106;2022-07-25T12:11:18;25.80;99.90
17918;DHT22;9084;50.956;3.106;2022-07-25T12:13:49;25.80;99.90
17918;DHT22;9084;50.956;3.106;2022-07-25T12:16:17;25.90;1.00
17918;DHT22;9084;50.956;3.106;2022-07-25T12:18:44;25.80;1.00
17918;DHT22;9084;50.956;3.106;2022-07-25T12:21:14;25.70;1.00
17918;DHT22;9084;50.956;3.106;2022-07-25T12:23:39;25.70;1.00
17918;DHT22;9084;50.956;3.106;2022-07-25T12:26:06;25.60;99.90
17918;DHT22;9084;50.956;3.106;2022-07-25T12:28:32;25.60;1.00
17918;DHT22;9084;50.956;3.106;2022-07-25T12:30:58;25.80;1.00
17918;DHT22;9084;50.956;3.106;2022-07-25T12:33:23;26.10;1.00
17918;DHT22;9084;50.956;3.106;2022-07-25T12:35:49;26.40;99.90
17918;DHT22;9084;50.956;3.106;2022-07-25T12:38:17;26.40;99.90
17918;DHT22;9084;50.956;3.106;2022-07-25T12:40:46;26.20;1.00
17918;DHT22;9084;50.956;3.106;2022-07-25T12:43:11;25.80;1.00
17918;DHT22;9084;50.956;3.106;2022-07-25T12:45:38;25.60;1.00
17918;DHT22;9084;50.956;3.106;2022-07-25T12:48:04;25.50;99.90
17918;DHT22;9084;50.956;3.106;2022-07-25T12:50:32;25.50;1.00
17918;DHT22;9084;50.956;3.106;2022-07-25T12:52:58;25.50;99.90
17918;DHT22;9084;50.956;3.106;2022-07-25T12:55:24;25.40;99.90
17918;DHT22;9084;50.956;3.106;2022-07-25T12:57:50;25.40;19.00
17918;DHT22;9084;50.956;3.106;2022-07-25T13:00:19;25.50;1.00
17918;DHT22;9084;50.956;3.106;2022-07-25T13:02:49;25.70;1.00
17918;DHT22;9084;50.956;3.106;2022-07-25T13:05:21;25.80;1.00
17918;DHT22;9084;50.956;3.106;2022-07-25T13:07:47;26.00;1.00
17918;DHT22;9084;50.956;3.106;2022-07-25T13:10:17;25.70;1.00
17918;DHT22;9084;50.956;3.106;2022-07-25T13:12:45;25.70;1.00
17918;DHT22;9084;50.956;3.106;2022-07-25T13:15:11;25.80;1.00
17918;DHT22;9084;50.956;3.106;2022-07-25T13:17:37;25.90;1.00
17918;DHT22;9084;50.956;3.106;2022-07-25T13:20:08;25.70;1.00
17918;DHT22;9084;50.956;3.106;2022-07-25T13:22:36;25.40;99.90
17918;DHT22;9084;50.956;3.106;2022-07-25T13:25:03;25.30;1.00
17918;DHT22;9084;50.956;3.106;2022-07-25T13:27:31;25.40;1.00
17918;DHT22;9084;50.956;3.106;2022-07-25T13:29:57;25.40;1.00
17918;DHT22;9084;50.956;3.106;2022-07-25T13:32:23;25.50;1.00
17918;DHT22;9084;50.956;3.106;2022-07-25T13:34:50;25.40;1.00
17918;DHT22;9084;50.956;3.106;2022-07-25T13:37:16;25.50;1.00
17918;DHT22;9084;50.956;3.106;2022-07-25T13:39:44;25.50;1.00
17918;DHT22;9084;50.956;3.106;2022-07-25T13:42:10;25.60;1.00
17918;DHT22;9084;50.956;3.106;2022-07-25T13:44:38;25.60;1.00
17918;DHT22;9084;50.956;3.106;2022-07-25T13:47:04;25.60;1.00
17918;DHT22;9084;50.956;3.106;2022-07-25T13:49:31;25.50;1.00
17918;DHT22;9084;50.956;3.106;2022-07-25T13:52:01;25.30;1.00
17918;DHT22;9084;50.956;3.106;2022-07-25T13:54:27;25.30;99.90
17918;DHT22;9084;50.956;3.106;2022-07-25T13:56:55;25.30;99.90
17918;DHT22;9084;50.956;3.106;2022-07-25T13:59:22;25.70;1.00
17918;DHT22;9084;50.956;3.106;2022-07-25T14:01:48;25.80;1.00
17918;DHT22;9084;50.956;3.106;2022-07-25T14:04:16;25.90;1.00
17918;DHT22;9084;50.956;3.106;2022-07-25T14:06:42;25.80;1.00
17918;DHT22;9084;50.956;3.106;2022-07-25T14:09:08;25.80;17.30
17918;DHT22;9084;50.956;3.106;2022-07-25T14:11:33;25.70;1.00
17918;DHT22;9084;50.956;3.106;2022-07-25T14:13:59;25.70;1.00
17918;DHT22;9084;50.956;3.106;2022-07-25T14:16:25;25.60;99.90
17918;DHT22;9084;50.956;3.106;2022-07-25T14:18:51;25.50;1.00
17918;DHT22;9084;50.956;3.106;2022-07-25T14:21:18;25.70;1.00
17918;DHT22;9084;50.956;3.106;2022-07-25T14:23:44;25.80;1.00
17918;DHT22;9084;50.956;3.106;2022-07-25T14:26:12;26.10;1.00
17918;DHT22;9084;50.956;3.106;2022-07-25T14:28:38;26.20;99.90
17918;DHT22;9084;50.956;3.106;2022-07-25T14:31:04;26.20;99.90
17918;DHT22;9084;50.956;3.106;2022-07-25T14:33:29;26.20;1.00
17918;DHT22;9084;50.956;3.106;2022-07-25T14:36:02;26.30;37.60
17918;DHT22;9084;50.956;3.106;2022-07-25T14:38:27;26.20;1.00
17918;DHT22;9084;50.956;3.106;2022-07-25T14:40:56;26.10;99.90
17918;DHT22;9084;50.956;3.106;2022-07-25T14:43:21;25.90;99.90
17918;DHT22;9084;50.956;3.106;2022-07-25T14:45:47;25.70;99.90
17918;DHT22;9084;50.956;3.106;2022-07-25T14:48:13;25.50;1.00
17918;DHT22;9084;50.956;3.106;2022-07-25T14:50:39;25.40;1.00
17918;DHT22;9084;50.956;3.106;2022-07-25T14:53:07;25.50;1.00
17918;DHT22;9084;50.956;3.106;2022-07-25T14:55:34;25.70;97.10
17918;DHT22;9084;50.956;3.106;2022-07-25T14:58:03;25.70;1.00
17918;DHT22;9084;50.956;3.106;2022-07-25T15:00:29;25.70;1.00
17918;DHT22;9084;50.956;3.106;2022-07-25T15:02:55;25.40;1.00
17918;DHT22;9084;50.956;3.106;2022-07-25T15:05:24;24.90;1.00
17918;DHT22;9084;50.956;3.106;2022-07-25T15:07:50;24.50;83.90
17918;DHT22;9084;50.956;3.106;2022-07-25T15:10:16;24.20;1.00
17918;DHT22;9084;50.956;3.106;2022-07-25T15:12:42;23.90;99.90
17918;DHT22;9084;50.956;3.106;2022-07-25T15:15:09;23.60;1.00
17918;DHT22;9084;50.956;3.106;2022-07-25T15:17:37;23.50;99.90
17918;DHT22;9084;50.956;3.106;2022-07-25T15:20:06;23.30;99.90
17918;DHT22;9084;50.956;3.106;2022-07-25T15:22:31;23.40;99.90
17918;DHT22;9084;50.956;3.106;2022-07-25T15:24:57;23.60;99.90
17918;DHT22;9084;50.956;3.106;2022-07-25T15:27:23;24.00;93.30
17918;DHT22;9084;50.956;3.106;2022-07-25T15:29:48;24.40;1.00
17918;DHT22;9084;50.956;3.106;2022-07-25T15:32:14;24.60;1.00
17918;DHT22;9084;50.956;3.106;2022-07-25T15:34:40;24.30;1.00
17918;DHT22;9084;50.956;3.106;2022-07-25T15:37:05;24.10;1.00
17918;DHT22;9084;50.956;3.106;2022-07-25T15:39:31;23.80;99.90
17918;DHT22;9084;50.956;3.106;2022-07-25T15:42:00;23.40;99.90
17918;DHT22;9084;50.956;3.106;2022-07-25T15:44:26;23.10;1.00
17918;DHT22;9084;50.956;3.106;2022-07-25T15:46:52;22.70;1.00
17918;DHT22;9084;50.956;3.106;2022-07-25T15:49:21;22.40;1.00
17918;DHT22;9084;50.956;3.106;2022-07-25T15:51:49;22.20;1.00
17918;DHT22;9084;50.956;3.106;2022-07-25T15:54:15;22.30;1.00
17918;DHT22;9084;50.956;3.106;2022-07-25T15:56:41;22.40;1.00
17918;DHT22;9084;50.956;3.106;2022-07-25T15:59:07;22.60;1.00
17918;DHT22;9084;50.956;3.106;2022-07-25T16:01:33;22.90;1.00
17918;DHT22;9084;50.956;3.106;2022-07-25T16:03:58;23.30;1.00
17918;DHT22;9084;50.956;3.106;2022-07-25T16:06:26;23.60;1.00
17918;DHT22;9084;50.956;3.106;2022-07-25T16:08:54;23.70;1.00
17918;DHT22;9084;50.956;3.106;2022-07-25T16:11:23;23.70;1.00
17918;DHT22;9084;50.956;3.106;2022-07-25T16:13:49;23.70;1.00